sensor_id;sensor_type;location;lat;lon;timestamp;P1;durP1;ratioP1;P2;durP2;ratioP2
61897;SDS011;47850;50.274;18.908;2022-12-24T00:00:19;24.70;;;14.80;;
61897;SDS011;47850;50.274;18.908;2022-12-24T00:02:45;24.20;;;13.70;;
61897;SDS011;47850;50.274;18.908;2022-12-24T00:05:10;25.60;;;12.90;;
61897;SDS011;47850;50.274;18.908;2022-12-24T00:07:36;20.60;;;11.00;;
61897;SDS011;47850;50.274;18.908;2022-12-24T00:10:02;24.80;;;14.00;;
61897;SDS011;47850;50.274;18.908;2022-12-24T00:12:29;24.70;;;13.10;;
61897;SDS011;47850;50.274;18.908;2022-12-24T00:14:55;21.50;;;10.20;;
61897;SDS011;47850;50.274;18.908;2022-12-24T00:17:21;22.60;;;11.10;;
61897;SDS011;47850;50.274;18.908;2022-12-24T00:19:46;29.10;;;14.40;;
61897;SDS011;47850;50.274;18.908;2022-12-24T00:22:12;27.70;;;14.40;;
61897;SDS011;47850;50.274;18.908;2022-12-24T00:24:38;22.40;;;11.90;;
61897;SDS011;47850;50.274;18.908;2022-12-24T00:27:03;36.70;;;16.50;;
61897;SDS011;47850;50.274;18.908;2022-12-24T00:29:30;32.10;;;16.00;;
61897;SDS011;47850;50.274;18.908;2022-12-24T00:31:57;73.20;;;32.30;;
61897;SDS011;47850;50.274;18.908;2022-12-24T00:34:23;61.10;;;27.10;;
61897;SDS011;47850;50.274;18.908;2022-12-24T00:36:49;48.80;;;24.40;;
61897;SDS011;47850;50.274;18.908;2022-12-24T00:39:14;40.50;;;20.60;;
61897;SDS011;47850;50.274;18.908;2022-12-24T00:41:40;34.80;;;19.30;;
61897;SDS011;47850;50.274;18.908;2022-12-24T00:44:05;36.70;;;19.00;;
61897;SDS011;47850;50.274;18.908;2022-12-24T00:46:34;27.20;;;15.20;;
61897;SDS011;47850;50.274;18.908;2022-12-24T00:49:01;26.20;;;14.00;;
61897;SDS011;47850;50.274;18.908;2022-12-24T00:51:28;19.60;;;13.20;;
61897;SDS011;47850;50.274;18.908;2022-12-24T00:53:53;45.50;;;17.40;;
61897;SDS011;47850;50.274;18.908;2022-12-24T00:56:19;28.80;;;14.40;;
61897;SDS011;47850;50.274;18.908;2022-12-24T00:58:46;42.30;;;18.10;;
61897;SDS011;47850;50.274;18.908;2022-12-24T01:01:11;31.10;;;15.10;;
61897;SDS011;47850;50.274;18.908;2022-12-24T01:03:37;28.60;;;14.10;;
61897;SDS011;47850;50.274;18.908;2022-12-24T01:06:04;43.00;;;16.80;;
61897;SDS011;47850;50.274;18.908;2022-12-24T01:08:32;26.40;;;12.10;;
61897;SDS011;47850;50.274;18.908;2022-12-24T01:10:58;44.70;;;17.20;;
61897;SDS011;47850;50.274;18.908;2022-12-24T01:13:24;25.20;;;12.60;;
61897;SDS011;47850;50.274;18.908;2022-12-24T01:15:50;82.80;;;24.40;;
61897;SDS011;47850;50.274;18.908;2022-12-24T01:18:16;26.20;;;11.80;;
61897;SDS011;47850;50.274;18.908;2022-12-24T01:20:41;49.10;;;16.30;;
61897;SDS011;47850;50.274;18.908;2022-12-24T01:23:07;27.10;;;11.50;;
61897;SDS011;47850;50.274;18.908;2022-12-24T01:25:32;58.00;;;16.60;;
61897;SDS011;47850;50.274;18.908;2022-12-24T01:27:58;99.30;;;26.60;;
61897;SDS011;47850;50.274;18.908;2022-12-24T01:30:23;25.80;;;12.50;;
61897;SDS011;47850;50.274;18.908;2022-12-24T01:32:49;39.70;;;16.20;;
61897;SDS011;47850;50.274;18.908;2022-12-24T01:35:15;42.30;;;24.90;;
61897;SDS011;47850;50.274;18.908;2022-12-24T01:37:40;34.70;;;17.20;;
61897;SDS011;47850;50.274;18.908;2022-12-24T01:40:07;26.10;;;12.90;;
61897;SDS011;47850;50.274;18.908;2022-12-24T01:42:57;28.60;;;14.40;;
61897;SDS011;47850;50.274;18.908;2022-12-24T01:45:43;30.20;;;12.90;;
61897;SDS011;47850;50.274;18.908;2022-12-24T01:48:21;58.30;;;23.30;;
61897;SDS011;47850;50.274;18.908;2022-12-24T01:50:58;37.50;;;16.70;;
61897;SDS011;47850;50.274;18.908;2022-12-24T01:53:29;69.50;;;24.60;;
61897;SDS011;47850;50.274;18.908;2022-12-24T01:55:56;36.90;;;17.80;;
61897;SDS011;47850;50.274;18.908;2022-12-24T01:58:22;40.80;;;20.30;;
61897;SDS011;47850;50.274;18.908;2022-12-24T02:00:49;34.30;;;16.00;;
61897;SDS011;47850;50.274;18.908;2022-12-24T02:03:15;34.20;;;15.70;;
61897;SDS011;47850;50.274;18.908;2022-12-24T02:05:45;36.30;;;17.50;;
61897;SDS011;47850;50.274;18.908;2022-12-24T02:08:13;41.20;;;18.10;;
61897;SDS011;47850;50.274;18.908;2022-12-24T02:10:39;29.90;;;12.90;;
61897;SDS011;47850;50.274;18.908;2022-12-24T02:13:05;22.60;;;12.10;;
61897;SDS011;47850;50.274;18.908;2022-12-24T02:16:07;43.40;;;17.90;;
61897;SDS011;47850;50.274;18.908;2022-12-24T02:18:46;33.40;;;15.30;;
61897;SDS011;47850;50.274;18.908;2022-12-24T02:35:00;23.50;;;13.10;;
61897;SDS011;47850;50.274;18.908;2022-12-24T02:37:44;35.00;;;15.40;;
61897;SDS011;47850;50.274;18.908;2022-12-24T02:40:29;21.20;;;11.90;;
61897;SDS011;47850;50.274;18.908;2022-12-24T02:43:02;19.90;;;11.40;;
61897;SDS011;47850;50.274;18.908;2022-12-24T02:45:33;22.70;;;11.50;;
61897;SDS011;47850;50.274;18.908;2022-12-24T02:48:00;23.20;;;12.30;;
61897;SDS011;47850;50.274;18.908;2022-12-24T02:50:26;21.80;;;10.80;;
61897;SDS011;47850;50.274;18.908;2022-12-24T02:52:52;20.30;;;11.20;;
61897;SDS011;47850;50.274;18.908;2022-12-24T03:03:53;10.90;;;6.50;;
61897;SDS011;47850;50.274;18.908;2022-12-24T03:06:45;12.80;;;6.80;;
61897;SDS011;47850;50.274;18.908;2022-12-24T03:12:07;10.00;;;6.10;;
61897;SDS011;47850;50.274;18.908;2022-12-24T03:14:38;8.00;;;5.50;;
61897;SDS011;47850;50.274;18.908;2022-12-24T03:17:06;14.50;;;9.50;;
61897;SDS011;47850;50.274;18.908;2022-12-24T03:19:33;8.40;;;5.60;;
61897;SDS011;47850;50.274;18.908;2022-12-24T03:21:59;15.40;;;9.60;;
61897;SDS011;47850;50.274;18.908;2022-12-24T03:24:28;17.60;;;10.30;;
61897;SDS011;47850;50.274;18.908;2022-12-24T03:26:54;14.00;;;8.50;;
61897;SDS011;47850;50.274;18.908;2022-12-24T03:29:20;11.40;;;7.90;;
61897;SDS011;47850;50.274;18.908;2022-12-24T03:31:47;13.50;;;8.80;;
61897;SDS011;47850;50.274;18.908;2022-12-24T03:34:15;12.70;;;6.90;;
61897;SDS011;47850;50.274;18.908;2022-12-24T03:36:42;11.30;;;7.70;;
61897;SDS011;47850;50.274;18.908;2022-12-24T03:39:09;15.80;;;10.00;;
61897;SDS011;47850;50.274;18.908;2022-12-24T03:41:35;17.30;;;10.50;;
61897;SDS011;47850;50.274;18.908;2022-12-24T03:44:02;12.40;;;7.60;;
61897;SDS011;47850;50.274;18.908;2022-12-24T03:46:28;12.90;;;9.50;;
61897;SDS011;47850;50.274;18.908;2022-12-24T03:48:53;14.60;;;10.20;;
61897;SDS011;47850;50.274;18.908;2022-12-24T03:51:22;13.80;;;9.30;;
61897;SDS011;47850;50.274;18.908;2022-12-24T03:53:51;16.90;;;10.00;;
61897;SDS011;47850;50.274;18.908;2022-12-24T03:56:17;16.30;;;10.50;;
61897;SDS011;47850;50.274;18.908;2022-12-24T03:58:43;17.20;;;11.10;;
61897;SDS011;47850;50.274;18.908;2022-12-24T04:01:08;14.20;;;9.60;;
61897;SDS011;47850;50.274;18.908;2022-12-24T04:03:34;14.70;;;9.20;;
61897;SDS011;47850;50.274;18.908;2022-12-24T04:06:00;14.40;;;8.80;;
61897;SDS011;47850;50.274;18.908;2022-12-24T04:08:30;16.60;;;10.60;;
61897;SDS011;47850;50.274;18.908;2022-12-24T04:10:56;15.10;;;10.80;;
61897;SDS011;47850;50.274;18.908;2022-12-24T04:13:21;16.80;;;9.50;;
61897;SDS011;47850;50.274;18.908;2022-12-24T04:15:59;16.80;;;10.70;;
61897;SDS011;47850;50.274;18.908;2022-12-24T04:18:29;13.20;;;8.70;;
61897;SDS011;47850;50.274;18.908;2022-12-24T04:20:55;17.60;;;11.40;;
61897;SDS011;47850;50.274;18.908;2022-12-24T04:23:21;14.10;;;9.90;;
61897;SDS011;47850;50.274;18.908;2022-12-24T04:25:48;15.60;;;10.30;;
61897;SDS011;47850;50.274;18.908;2022-12-24T04:28:14;17.40;;;11.60;;
61897;SDS011;47850;50.274;18.908;2022-12-24T04:30:40;19.80;;;11.90;;
61897;SDS011;47850;50.274;18.908;2022-12-24T04:33:06;18.70;;;10.40;;
61897;SDS011;47850;50.274;18.908;2022-12-24T04:35:32;17.30;;;10.70;;
61897;SDS011;47850;50.274;18.908;2022-12-24T04:37:58;19.30;;;11.80;;
61897;SDS011;47850;50.274;18.908;2022-12-24T04:40:24;18.80;;;11.50;;
61897;SDS011;47850;50.274;18.908;2022-12-24T04:42:50;18.80;;;11.60;;
61897;SDS011;47850;50.274;18.908;2022-12-24T04:45:16;19.90;;;12.50;;
61897;SDS011;47850;50.274;18.908;2022-12-24T04:47:42;20.70;;;12.00;;
61897;SDS011;47850;50.274;18.908;2022-12-24T04:50:07;19.70;;;12.20;;
61897;SDS011;47850;50.274;18.908;2022-12-24T04:52:34;19.80;;;12.60;;
61897;SDS011;47850;50.274;18.908;2022-12-24T04:54:59;19.30;;;12.40;;
61897;SDS011;47850;50.274;18.908;2022-12-24T04:57:25;18.30;;;11.80;;
61897;SDS011;47850;50.274;18.908;2022-12-24T04:59:50;17.80;;;11.60;;
61897;SDS011;47850;50.274;18.908;2022-12-24T05:02:15;11.80;;;7.10;;
61897;SDS011;47850;50.274;18.908;2022-12-24T05:04:41;18.60;;;12.50;;
61897;SDS011;47850;50.274;18.908;2022-12-24T05:07:06;16.00;;;10.30;;
61897;SDS011;47850;50.274;18.908;2022-12-24T05:09:32;18.30;;;11.70;;
61897;SDS011;47850;50.274;18.908;2022-12-24T05:11:57;17.00;;;9.80;;
61897;SDS011;47850;50.274;18.908;2022-12-24T05:14:23;13.90;;;9.20;;
61897;SDS011;47850;50.274;18.908;2022-12-24T05:16:48;14.70;;;9.60;;
61897;SDS011;47850;50.274;18.908;2022-12-24T05:19:14;17.60;;;11.20;;
61897;SDS011;47850;50.274;18.908;2022-12-24T05:21:39;17.30;;;11.30;;
61897;SDS011;47850;50.274;18.908;2022-12-24T05:24:05;18.60;;;11.70;;
61897;SDS011;47850;50.274;18.908;2022-12-24T05:26:53;19.20;;;12.40;;
61897;SDS011;47850;50.274;18.908;2022-12-24T05:29:21;21.10;;;13.10;;
61897;SDS011;47850;50.274;18.908;2022-12-24T05:31:47;20.90;;;9.60;;
61897;SDS011;47850;50.274;18.908;2022-12-24T05:34:13;17.30;;;10.90;;
61897;SDS011;47850;50.274;18.908;2022-12-24T05:36:39;15.20;;;10.40;;
61897;SDS011;47850;50.274;18.908;2022-12-24T05:39:09;20.00;;;11.90;;
61897;SDS011;47850;50.274;18.908;2022-12-24T05:41:39;16.30;;;10.50;;
61897;SDS011;47850;50.274;18.908;2022-12-24T05:44:05;24.40;;;13.40;;
61897;SDS011;47850;50.274;18.908;2022-12-24T05:46:30;19.90;;;12.10;;
61897;SDS011;47850;50.274;18.908;2022-12-24T05:48:55;11.30;;;7.20;;
61897;SDS011;47850;50.274;18.908;2022-12-24T05:51:21;20.60;;;12.10;;
61897;SDS011;47850;50.274;18.908;2022-12-24T05:53:48;24.30;;;13.40;;
61897;SDS011;47850;50.274;18.908;2022-12-24T05:56:15;21.50;;;12.80;;
61897;SDS011;47850;50.274;18.908;2022-12-24T05:58:43;18.80;;;10.80;;
61897;SDS011;47850;50.274;18.908;2022-12-24T06:01:09;20.10;;;11.60;;
61897;SDS011;47850;50.274;18.908;2022-12-24T06:03:36;22.90;;;14.30;;
61897;SDS011;47850;50.274;18.908;2022-12-24T06:06:03;25.10;;;14.00;;
61897;SDS011;47850;50.274;18.908;2022-12-24T06:08:31;23.20;;;15.10;;
61897;SDS011;47850;50.274;18.908;2022-12-24T06:10:59;13.60;;;7.90;;
61897;SDS011;47850;50.274;18.908;2022-12-24T06:13:27;25.20;;;15.20;;
61897;SDS011;47850;50.274;18.908;2022-12-24T06:15:57;18.80;;;11.30;;
61897;SDS011;47850;50.274;18.908;2022-12-24T06:18:23;19.20;;;11.90;;
61897;SDS011;47850;50.274;18.908;2022-12-24T06:20:52;17.60;;;10.20;;
61897;SDS011;47850;50.274;18.908;2022-12-24T06:23:19;21.80;;;13.30;;
61897;SDS011;47850;50.274;18.908;2022-12-24T06:25:45;16.50;;;10.20;;
61897;SDS011;47850;50.274;18.908;2022-12-24T06:28:12;21.70;;;14.20;;
61897;SDS011;47850;50.274;18.908;2022-12-24T06:30:38;21.80;;;13.40;;
61897;SDS011;47850;50.274;18.908;2022-12-24T06:33:04;26.10;;;13.90;;
61897;SDS011;47850;50.274;18.908;2022-12-24T06:35:30;21.00;;;12.10;;
61897;SDS011;47850;50.274;18.908;2022-12-24T06:37:57;15.80;;;9.20;;
61897;SDS011;47850;50.274;18.908;2022-12-24T06:40:24;23.70;;;14.50;;
61897;SDS011;47850;50.274;18.908;2022-12-24T06:42:50;20.60;;;13.30;;
61897;SDS011;47850;50.274;18.908;2022-12-24T06:45:16;20.90;;;13.50;;
61897;SDS011;47850;50.274;18.908;2022-12-24T06:47:41;19.10;;;13.20;;
61897;SDS011;47850;50.274;18.908;2022-12-24T06:50:07;19.30;;;11.60;;
61897;SDS011;47850;50.274;18.908;2022-12-24T06:52:33;22.70;;;14.00;;
61897;SDS011;47850;50.274;18.908;2022-12-24T06:54:59;24.30;;;14.70;;
61897;SDS011;47850;50.274;18.908;2022-12-24T06:57:24;24.30;;;15.90;;
61897;SDS011;47850;50.274;18.908;2022-12-24T06:59:50;25.30;;;15.50;;
61897;SDS011;47850;50.274;18.908;2022-12-24T07:02:15;26.40;;;15.30;;
61897;SDS011;47850;50.274;18.908;2022-12-24T07:04:40;25.00;;;14.40;;
61897;SDS011;47850;50.274;18.908;2022-12-24T07:07:06;17.90;;;10.00;;
61897;SDS011;47850;50.274;18.908;2022-12-24T07:09:31;25.20;;;16.10;;
61897;SDS011;47850;50.274;18.908;2022-12-24T07:11:57;22.30;;;13.00;;
61897;SDS011;47850;50.274;18.908;2022-12-24T07:14:22;26.40;;;15.80;;
61897;SDS011;47850;50.274;18.908;2022-12-24T07:16:48;23.60;;;15.00;;
61897;SDS011;47850;50.274;18.908;2022-12-24T07:19:13;24.70;;;15.40;;
61897;SDS011;47850;50.274;18.908;2022-12-24T07:21:39;21.50;;;12.50;;
61897;SDS011;47850;50.274;18.908;2022-12-24T07:24:05;21.40;;;11.80;;
61897;SDS011;47850;50.274;18.908;2022-12-24T07:26:31;13.90;;;8.00;;
61897;SDS011;47850;50.274;18.908;2022-12-24T07:28:56;18.70;;;8.50;;
61897;SDS011;47850;50.274;18.908;2022-12-24T07:31:22;23.50;;;13.70;;
61897;SDS011;47850;50.274;18.908;2022-12-24T07:33:48;26.00;;;14.00;;
61897;SDS011;47850;50.274;18.908;2022-12-24T07:36:14;20.70;;;11.50;;
61897;SDS011;47850;50.274;18.908;2022-12-24T07:38:43;26.50;;;14.70;;
61897;SDS011;47850;50.274;18.908;2022-12-24T07:41:09;23.60;;;14.40;;
61897;SDS011;47850;50.274;18.908;2022-12-24T07:43:35;25.40;;;13.70;;
61897;SDS011;47850;50.274;18.908;2022-12-24T07:46:00;26.60;;;15.20;;
61897;SDS011;47850;50.274;18.908;2022-12-24T07:48:27;23.80;;;11.40;;
61897;SDS011;47850;50.274;18.908;2022-12-24T07:50:53;28.50;;;13.90;;
61897;SDS011;47850;50.274;18.908;2022-12-24T07:53:20;21.30;;;12.50;;
61897;SDS011;47850;50.274;18.908;2022-12-24T07:55:45;26.70;;;14.90;;
61897;SDS011;47850;50.274;18.908;2022-12-24T07:58:11;31.90;;;17.20;;
61897;SDS011;47850;50.274;18.908;2022-12-24T08:00:36;31.30;;;15.90;;
61897;SDS011;47850;50.274;18.908;2022-12-24T08:03:02;28.70;;;14.40;;
61897;SDS011;47850;50.274;18.908;2022-12-24T08:05:27;24.50;;;14.30;;
61897;SDS011;47850;50.274;18.908;2022-12-24T08:07:53;22.80;;;12.50;;
61897;SDS011;47850;50.274;18.908;2022-12-24T08:10:19;24.20;;;13.40;;
61897;SDS011;47850;50.274;18.908;2022-12-24T08:12:45;26.10;;;13.70;;
61897;SDS011;47850;50.274;18.908;2022-12-24T08:15:12;25.10;;;13.40;;
61897;SDS011;47850;50.274;18.908;2022-12-24T08:17:38;25.10;;;14.00;;
61897;SDS011;47850;50.274;18.908;2022-12-24T08:20:04;28.30;;;14.60;;
61897;SDS011;47850;50.274;18.908;2022-12-24T08:22:30;24.80;;;13.30;;
61897;SDS011;47850;50.274;18.908;2022-12-24T08:24:55;26.60;;;14.30;;
61897;SDS011;47850;50.274;18.908;2022-12-24T08:27:21;22.10;;;12.30;;
61897;SDS011;47850;50.274;18.908;2022-12-24T08:29:46;29.30;;;15.00;;
61897;SDS011;47850;50.274;18.908;2022-12-24T08:32:12;26.60;;;15.10;;
61897;SDS011;47850;50.274;18.908;2022-12-24T08:34:37;27.50;;;13.90;;
61897;SDS011;47850;50.274;18.908;2022-12-24T08:37:03;20.60;;;11.50;;
61897;SDS011;47850;50.274;18.908;2022-12-24T08:39:28;23.60;;;12.50;;
61897;SDS011;47850;50.274;18.908;2022-12-24T08:41:54;24.00;;;13.30;;
61897;SDS011;47850;50.274;18.908;2022-12-24T08:44:20;19.80;;;10.80;;
61897;SDS011;47850;50.274;18.908;2022-12-24T08:46:46;21.80;;;11.60;;
61897;SDS011;47850;50.274;18.908;2022-12-24T08:49:11;20.20;;;11.70;;
61897;SDS011;47850;50.274;18.908;2022-12-24T08:51:37;22.60;;;10.70;;
61897;SDS011;47850;50.274;18.908;2022-12-24T08:54:02;19.10;;;10.40;;
61897;SDS011;47850;50.274;18.908;2022-12-24T08:56:28;19.30;;;10.30;;
61897;SDS011;47850;50.274;18.908;2022-12-24T08:58:53;16.80;;;9.80;;
61897;SDS011;47850;50.274;18.908;2022-12-24T09:01:19;18.60;;;9.30;;
61897;SDS011;47850;50.274;18.908;2022-12-24T09:03:45;18.80;;;8.70;;
61897;SDS011;47850;50.274;18.908;2022-12-24T09:06:12;22.60;;;11.70;;
61897;SDS011;47850;50.274;18.908;2022-12-24T09:08:38;25.60;;;12.20;;
61897;SDS011;47850;50.274;18.908;2022-12-24T09:11:08;15.00;;;7.80;;
61897;SDS011;47850;50.274;18.908;2022-12-24T09:13:37;26.60;;;12.70;;
61897;SDS011;47850;50.274;18.908;2022-12-24T09:16:04;19.20;;;10.00;;
61897;SDS011;47850;50.274;18.908;2022-12-24T09:18:29;23.30;;;11.30;;
61897;SDS011;47850;50.274;18.908;2022-12-24T09:20:59;23.30;;;10.20;;
61897;SDS011;47850;50.274;18.908;2022-12-24T09:23:30;18.90;;;9.50;;
61897;SDS011;47850;50.274;18.908;2022-12-24T09:25:58;24.20;;;11.00;;
61897;SDS011;47850;50.274;18.908;2022-12-24T09:28:24;22.00;;;10.70;;
61897;SDS011;47850;50.274;18.908;2022-12-24T09:30:59;25.60;;;11.60;;
61897;SDS011;47850;50.274;18.908;2022-12-24T09:33:31;22.70;;;10.80;;
61897;SDS011;47850;50.274;18.908;2022-12-24T09:35:59;21.70;;;9.50;;
61897;SDS011;47850;50.274;18.908;2022-12-24T09:38:25;16.70;;;7.70;;
61897;SDS011;47850;50.274;18.908;2022-12-24T09:40:51;23.10;;;10.80;;
61897;SDS011;47850;50.274;18.908;2022-12-24T09:43:20;18.40;;;8.80;;
61897;SDS011;47850;50.274;18.908;2022-12-24T09:48:42;18.80;;;9.00;;
61897;SDS011;47850;50.274;18.908;2022-12-24T09:51:17;19.90;;;9.60;;
61897;SDS011;47850;50.274;18.908;2022-12-24T09:54:02;17.60;;;8.80;;
61897;SDS011;47850;50.274;18.908;2022-12-24T09:56:42;15.70;;;9.00;;
61897;SDS011;47850;50.274;18.908;2022-12-24T09:59:24;19.40;;;9.20;;
61897;SDS011;47850;50.274;18.908;2022-12-24T10:01:56;16.50;;;8.30;;
61897;SDS011;47850;50.274;18.908;2022-12-24T10:04:26;18.90;;;9.00;;
61897;SDS011;47850;50.274;18.908;2022-12-24T10:09:45;19.50;;;9.20;;
61897;SDS011;47850;50.274;18.908;2022-12-24T10:12:24;13.20;;;6.40;;
61897;SDS011;47850;50.274;18.908;2022-12-24T10:18:02;10.50;;;5.50;;
61897;SDS011;47850;50.274;18.908;2022-12-24T10:20:52;14.70;;;7.00;;
61897;SDS011;47850;50.274;18.908;2022-12-24T10:23:49;16.20;;;7.60;;
61897;SDS011;47850;50.274;18.908;2022-12-24T10:26:23;10.30;;;5.60;;
61897;SDS011;47850;50.274;18.908;2022-12-24T10:31:52;19.50;;;8.70;;
61897;SDS011;47850;50.274;18.908;2022-12-24T10:34:56;8.70;;;4.60;;
61897;SDS011;47850;50.274;18.908;2022-12-24T10:37:24;15.60;;;6.80;;
61897;SDS011;47850;50.274;18.908;2022-12-24T10:39:53;12.50;;;6.70;;
61897;SDS011;47850;50.274;18.908;2022-12-24T10:42:20;10.70;;;5.60;;
61897;SDS011;47850;50.274;18.908;2022-12-24T10:44:51;12.40;;;5.50;;
61897;SDS011;47850;50.274;18.908;2022-12-24T10:47:22;6.10;;;3.50;;
61897;SDS011;47850;50.274;18.908;2022-12-24T10:50:02;7.80;;;4.20;;
61897;SDS011;47850;50.274;18.908;2022-12-24T10:52:34;9.40;;;4.80;;
61897;SDS011;47850;50.274;18.908;2022-12-24T10:55:19;9.20;;;4.60;;
61897;SDS011;47850;50.274;18.908;2022-12-24T10:58:04;10.00;;;4.60;;
61897;SDS011;47850;50.274;18.908;2022-12-24T11:00:32;10.50;;;4.90;;
61897;SDS011;47850;50.274;18.908;2022-12-24T11:05:37;8.20;;;5.00;;
61897;SDS011;47850;50.274;18.908;2022-12-24T11:08:14;8.60;;;3.90;;
61897;SDS011;47850;50.274;18.908;2022-12-24T11:10:55;10.80;;;6.30;;
61897;SDS011;47850;50.274;18.908;2022-12-24T11:13:24;11.40;;;5.80;;
61897;SDS011;47850;50.274;18.908;2022-12-24T11:16:01;10.00;;;5.10;;
61897;SDS011;47850;50.274;18.908;2022-12-24T11:18:28;11.70;;;5.60;;
61897;SDS011;47850;50.274;18.908;2022-12-24T11:20:56;11.00;;;5.10;;
61897;SDS011;47850;50.274;18.908;2022-12-24T11:23:25;8.70;;;5.40;;
61897;SDS011;47850;50.274;18.908;2022-12-24T11:25:52;13.70;;;6.00;;
61897;SDS011;47850;50.274;18.908;2022-12-24T11:28:22;9.50;;;5.60;;
61897;SDS011;47850;50.274;18.908;2022-12-24T11:30:54;10.20;;;5.80;;
61897;SDS011;47850;50.274;18.908;2022-12-24T11:33:23;10.40;;;5.20;;
61897;SDS011;47850;50.274;18.908;2022-12-24T11:35:50;11.30;;;5.30;;
61897;SDS011;47850;50.274;18.908;2022-12-24T11:38:23;11.70;;;6.00;;
61897;SDS011;47850;50.274;18.908;2022-12-24T11:41:23;10.90;;;5.40;;
61897;SDS011;47850;50.274;18.908;2022-12-24T11:43:43;10.20;;;6.30;;
61897;SDS011;47850;50.274;18.908;2022-12-24T11:46:20;13.80;;;6.40;;
61897;SDS011;47850;50.274;18.908;2022-12-24T11:49:05;10.70;;;5.40;;
61897;SDS011;47850;50.274;18.908;2022-12-24T11:51:31;12.40;;;6.30;;
61897;SDS011;47850;50.274;18.908;2022-12-24T11:54:15;9.50;;;5.40;;
61897;SDS011;47850;50.274;18.908;2022-12-24T11:56:46;10.20;;;5.10;;
61897;SDS011;47850;50.274;18.908;2022-12-24T12:01:54;11.00;;;5.30;;
61897;SDS011;47850;50.274;18.908;2022-12-24T12:04:32;9.60;;;4.40;;
61897;SDS011;47850;50.274;18.908;2022-12-24T12:07:02;9.60;;;4.80;;
61897;SDS011;47850;50.274;18.908;2022-12-24T12:09:38;10.00;;;4.60;;
61897;SDS011;47850;50.274;18.908;2022-12-24T12:12:11;8.10;;;4.20;;
61897;SDS011;47850;50.274;18.908;2022-12-24T12:14:44;10.20;;;4.40;;
61897;SDS011;47850;50.274;18.908;2022-12-24T12:17:24;8.50;;;3.50;;
61897;SDS011;47850;50.274;18.908;2022-12-24T12:19:56;9.50;;;5.10;;
61897;SDS011;47850;50.274;18.908;2022-12-24T12:25:25;8.50;;;5.10;;
61897;SDS011;47850;50.274;18.908;2022-12-24T12:27:57;9.30;;;5.50;;
61897;SDS011;47850;50.274;18.908;2022-12-24T12:30:26;9.80;;;4.90;;
61897;SDS011;47850;50.274;18.908;2022-12-24T12:33:03;10.90;;;5.40;;
61897;SDS011;47850;50.274;18.908;2022-12-24T12:35:50;7.60;;;4.50;;
61897;SDS011;47850;50.274;18.908;2022-12-24T12:38:23;10.10;;;4.20;;
61897;SDS011;47850;50.274;18.908;2022-12-24T12:43:47;8.70;;;4.70;;
61897;SDS011;47850;50.274;18.908;2022-12-24T12:46:27;12.10;;;4.80;;
61897;SDS011;47850;50.274;18.908;2022-12-24T12:51:42;7.30;;;4.00;;
61897;SDS011;47850;50.274;18.908;2022-12-24T12:56:46;8.60;;;3.60;;
61897;SDS011;47850;50.274;18.908;2022-12-24T12:59:20;12.50;;;4.50;;
61897;SDS011;47850;50.274;18.908;2022-12-24T13:02:02;10.40;;;4.60;;
61897;SDS011;47850;50.274;18.908;2022-12-24T13:12:57;11.30;;;5.20;;
61897;SDS011;47850;50.274;18.908;2022-12-24T13:21:03;13.00;;;6.20;;
61897;SDS011;47850;50.274;18.908;2022-12-24T13:23:29;11.20;;;5.60;;
61897;SDS011;47850;50.274;18.908;2022-12-24T13:25:55;12.00;;;5.80;;
61897;SDS011;47850;50.274;18.908;2022-12-24T13:30:48;12.80;;;6.10;;
61897;SDS011;47850;50.274;18.908;2022-12-24T13:52:07;18.40;;;7.40;;
61897;SDS011;47850;50.274;18.908;2022-12-24T13:57:30;13.30;;;6.90;;
61897;SDS011;47850;50.274;18.908;2022-12-24T14:02:50;13.60;;;6.70;;
61897;SDS011;47850;50.274;18.908;2022-12-24T14:05:30;18.60;;;7.20;;
61897;SDS011;47850;50.274;18.908;2022-12-24T14:08:01;15.70;;;6.40;;
61897;SDS011;47850;50.274;18.908;2022-12-24T14:10:31;12.50;;;6.70;;
61897;SDS011;47850;50.274;18.908;2022-12-24T14:13:04;12.60;;;6.70;;
61897;SDS011;47850;50.274;18.908;2022-12-24T14:18:22;13.50;;;6.20;;
61897;SDS011;47850;50.274;18.908;2022-12-24T14:20:49;17.30;;;6.70;;
61897;SDS011;47850;50.274;18.908;2022-12-24T14:24:02;11.80;;;5.60;;
61897;SDS011;47850;50.274;18.908;2022-12-24T14:26:17;14.60;;;6.70;;
61897;SDS011;47850;50.274;18.908;2022-12-24T14:28:53;13.40;;;6.00;;
61897;SDS011;47850;50.274;18.908;2022-12-24T14:31:22;10.00;;;5.40;;
61897;SDS011;47850;50.274;18.908;2022-12-24T14:33:48;10.80;;;5.70;;
61897;SDS011;47850;50.274;18.908;2022-12-24T14:36:18;13.80;;;7.10;;
61897;SDS011;47850;50.274;18.908;2022-12-24T14:38:46;16.20;;;7.60;;
61897;SDS011;47850;50.274;18.908;2022-12-24T14:49:29;16.30;;;7.30;;
61897;SDS011;47850;50.274;18.908;2022-12-24T14:54:48;16.00;;;7.50;;
61897;SDS011;47850;50.274;18.908;2022-12-24T14:57:17;14.80;;;7.40;;
61897;SDS011;47850;50.274;18.908;2022-12-24T14:59:55;17.30;;;9.00;;
61897;SDS011;47850;50.274;18.908;2022-12-24T15:07:58;16.40;;;6.20;;
61897;SDS011;47850;50.274;18.908;2022-12-24T15:10:27;22.80;;;9.40;;
61897;SDS011;47850;50.274;18.908;2022-12-24T15:12:58;22.00;;;9.10;;
61897;SDS011;47850;50.274;18.908;2022-12-24T15:15:28;28.60;;;11.40;;
61897;SDS011;47850;50.274;18.908;2022-12-24T15:17:54;27.90;;;11.10;;
61897;SDS011;47850;50.274;18.908;2022-12-24T15:20:23;23.70;;;10.80;;
61897;SDS011;47850;50.274;18.908;2022-12-24T15:22:51;21.80;;;10.50;;
61897;SDS011;47850;50.274;18.908;2022-12-24T15:25:24;20.50;;;9.10;;
61897;SDS011;47850;50.274;18.908;2022-12-24T15:27:54;21.80;;;9.30;;
61897;SDS011;47850;50.274;18.908;2022-12-24T15:30:25;18.40;;;8.50;;
61897;SDS011;47850;50.274;18.908;2022-12-24T15:32:54;21.10;;;7.60;;
61897;SDS011;47850;50.274;18.908;2022-12-24T15:35:28;16.00;;;7.50;;
61897;SDS011;47850;50.274;18.908;2022-12-24T15:38:26;23.30;;;8.90;;
61897;SDS011;47850;50.274;18.908;2022-12-24T15:40:56;37.20;;;14.00;;
61897;SDS011;47850;50.274;18.908;2022-12-24T15:43:22;21.00;;;9.10;;
61897;SDS011;47850;50.274;18.908;2022-12-24T15:45:49;30.00;;;12.50;;
61897;SDS011;47850;50.274;18.908;2022-12-24T15:48:20;31.80;;;13.00;;
61897;SDS011;47850;50.274;18.908;2022-12-24T15:50:50;34.30;;;15.90;;
61897;SDS011;47850;50.274;18.908;2022-12-24T15:53:23;38.40;;;17.80;;
61897;SDS011;47850;50.274;18.908;2022-12-24T15:58:27;35.90;;;15.20;;
61897;SDS011;47850;50.274;18.908;2022-12-24T16:03:54;31.10;;;14.70;;
61897;SDS011;47850;50.274;18.908;2022-12-24T16:06:21;25.20;;;12.20;;
61897;SDS011;47850;50.274;18.908;2022-12-24T16:08:47;31.00;;;14.90;;
61897;SDS011;47850;50.274;18.908;2022-12-24T16:11:19;29.50;;;15.30;;
61897;SDS011;47850;50.274;18.908;2022-12-24T16:16:13;33.20;;;16.20;;
61897;SDS011;47850;50.274;18.908;2022-12-24T16:18:51;33.90;;;15.70;;
61897;SDS011;47850;50.274;18.908;2022-12-24T16:21:23;25.80;;;12.40;;
61897;SDS011;47850;50.274;18.908;2022-12-24T16:23:53;23.20;;;10.10;;
61897;SDS011;47850;50.274;18.908;2022-12-24T16:26:20;20.20;;;9.90;;
61897;SDS011;47850;50.274;18.908;2022-12-24T16:28:46;30.70;;;13.90;;